San Diego, CA

1:27 PM PDT on August 27, 2014 (GMT -0700)
MesoWest USS Midway CA US SGXWFO | Change Station
CLOSE
Current Station
Personal Weather Station
Location: San Diego, CA
Elevation: 49 ft
Nearby Weather Stations
Active Advisory: Beach Hazard Statement

Elev 49 ft 32.71 °N, 117.17 °W | Updated 32 minutes ago

Clear
Clear
77 °F
Feels Like 79 °F
N
4
Wind Variable Wind from West
Gusts 0.0 mph

Today
High -- | Low -- °F
--% Chance of Precip.
Yesterday
High -- | Low -- °F
Precip. -- in
6:20 AM 7:19 PM
Waxing Crescent, 5% visible
Pressure 30.02 in
Visibility 10.0 miles
Clouds Clear
Heat Index 79 °F
Dew Point 68 °F
Humidity 73%
Rainfall -999.00 in
Snow Depth Not available.
UV 11 out of 12
Pollen 6.80 out of 12
Ozone Good
PM2.5 Moderate
Flu Activity Not available.
METAR KSAN 271951Z 31008KT 10SM CLR 28/17 A3002 RMK AO2 SLP165 T02830172

More Conditions Fewer Conditions

Pressure 30.02 in
Visibility 10.0 miles
Clouds Clear
Heat Index 79 °F
Dew Point 68 °F
Humidity 73%
Rainfall -999.00 in
Snow Depth Not available.
UV 11 out of 12
Pollen 6.80 out of 12
Ozone Good
PM2.5 Moderate
Flu Activity Not available.
METAR KSAN 271951Z 31008KT 10SM CLR 28/17 A3002 RMK AO2 SLP165 T02830172

More Conditions Fewer Conditions

10-Day Weather Forecast

Almanac

Astronomy

Aug. 27, 2014 Rise Set
Actual Time 6:20 AM PDT 7:19 PM PDT
Civil Twilight 5:54 AM PDT 7:44 PM PDT
Nautical Twilight 5:24 AM PDT 8:14 PM PDT
Astronomical Twilight 4:53 AM PDT 8:45 PM PDT
Moon 8:11 AM PDT 8:24 PM PDT
Length of Visible Light 13h 49m
Length of Day
12h 59m
Tomorrow will be 1m 54s shorter.
Waxing Crescent, 5% of the Moon is Illuminated
Today
Waxing Crescent
Sep 2
First Quarter
Sep 8
Full
Sep 15
Last Quarter
Sep 24
New

Today's Extremes

State Highs State Lows

Community

WunderPhotos

Upload Photos

1,747,781 photos uploaded!

Nearby

Air Quality

  Air Quality AQ Index Pollutant
Yesterday Moderate
PM2.5
Yesterday Good
OZONE
Current Moderate
PM2.5
Current Good
OZONE
Wednesday Good
PM2.5
Wednesday Good
OZONE

Snow Depth

Station Depth Elevation
Leavitt Lake 0 in 9400 ft
Leavitt Meadows 1 in 7200 ft
Summit Meadow 0 in 9122 ft
Fallen Leaf 0 in 6300 ft
Rubicon #2 0 in 7500 ft

Earthquake Activity

City Distance Mag. Time & Date
San Fernando, California 127 miles 2.5 4:57 AM PDT
2014-08-26
Progreso, Mexico 85 miles 2.6 10:55 PM PDT
2014-08-25
Maneadero, Mexico 91 miles 2.8 1:03 PM PDT
2014-08-25
San Pedro, California 93 miles 3.2 7:50 PM PDT
2014-08-24
Minimum magnitude displayed is 2.5.

Coastal Water Temperatures

Place Temperature
La Jolla, CA 73.0 °F
San Diego, CA 73.9 °F

Nearby Weather Stations